Time;durP1;ratioP1;P1;durP2;ratioP2;P2;SDS_P1;SDS_P2;PMS_P1;PMS_P2;Temp;Humidity;BMP_temperature;BMP_pressure;BME280_temperature;BME280_humidity;BME280_pressure;Samples;Min_cycle;Max_cycle;Signal;HPM_P1;HPM_P2
2022/10/24 00:02:12;;;;;;;160.40;12.70;;;;;;;12.48;72.10;99326.59;10367350;28;20925;-65
2022/10/24 00:07:14;;;;;;;235.82;16.63;;;;;;;12.51;72.11;99337.72;10382414;28;20053;-65
2022/10/24 00:12:18;;;;;;;78.03;7.00;;;;;;;12.56;72.29;99332.94;10384132;28;20058;-65
2022/10/24 00:17:20;;;;;;;135.13;8.70;;;;;;;12.62;72.04;99326.41;10383899;28;20057;-65
2022/10/24 00:22:21;;;;;;;232.35;17.83;;;;;;;12.71;72.39;99326.50;10378533;28;20064;-66
2022/10/24 00:27:23;;;;;;;179.68;17.80;;;;;;;12.64;72.07;99322.69;10383771;28;20497;-65
2022/10/24 00:32:26;;;;;;;210.60;17.02;;;;;;;12.60;72.63;99320.44;10384654;28;20045;-65
2022/10/24 00:37:27;;;;;;;188.20;13.27;;;;;;;12.61;72.19;99320.31;10380192;28;20057;-65
2022/10/24 00:42:29;;;;;;;159.13;17.63;;;;;;;12.80;72.09;99323.16;10381285;28;20085;-65
2022/10/24 00:47:31;;;;;;;161.55;20.92;;;;;;;12.97;71.66;99321.81;10384474;28;20142;-65
2022/10/24 00:52:38;;;;;;;192.10;21.02;;;;;;;13.02;71.76;99318.84;10381565;28;20073;-66
2022/10/24 00:57:53;;;;;;;240.52;19.02;;;;;;;13.04;71.32;99319.56;10381675;28;20304;-65
2022/10/24 01:02:56;;;;;;;167.18;7.88;;;;;;;13.05;71.31;99318.63;10380760;28;20073;-66
2022/10/24 01:08:08;;;;;;;614.42;40.17;;;;;;;12.84;71.75;99308.84;10381169;28;20057;-65
2022/10/24 01:13:38;;;;;;;273.00;11.60;;;;;;;12.76;71.70;99295.47;10380098;28;20429;-65
2022/10/24 01:19:31;;;;;;;331.52;24.33;;;;;;;12.68;71.83;99292.63;10382721;28;20417;-65
2022/10/24 01:24:45;;;;;;;683.38;31.27;;;;;;;12.76;72.00;99287.63;10378761;28;20103;-65
2022/10/24 01:30:11;;;;;;;254.18;10.60;;;;;;;12.79;72.02;99276.88;10395925;28;20493;-66
2022/10/24 01:35:34;;;;;;;362.95;14.23;;;;;;;12.82;71.82;99275.81;10398285;28;20041;-65
2022/10/24 01:40:47;;;;;;;441.50;20.83;;;;;;;12.81;71.68;99280.22;10395631;28;20418;-65
2022/10/24 01:46:02;;;;;;;252.80;15.57;;;;;;;12.83;71.67;99288.81;10397270;28;20057;-66
2022/10/24 01:51:07;;;;;;;429.23;21.63;;;;;;;12.76;71.64;99285.00;10396950;28;20489;-65
2022/10/24 01:56:09;;;;;;;454.58;16.90;;;;;;;12.73;71.48;99281.78;10389248;28;20045;-65
2022/10/24 02:01:20;;;;;;;274.38;11.77;;;;;;;12.66;71.56;99281.41;10398013;28;20485;-65
2022/10/24 02:06:25;;;;;;;383.60;21.33;;;;;;;12.61;71.71;99286.22;10405602;28;20044;-66
2022/10/24 02:11:27;;;;;;;311.48;14.63;;;;;;;12.52;71.74;99286.91;10403808;28;20372;-65
2022/10/24 02:16:29;;;;;;;348.63;21.05;;;;;;;12.52;71.65;99276.41;10403757;28;20116;-65
2022/10/24 02:21:54;;;;;;;294.02;19.45;;;;;;;12.45;71.72;99293.59;10401196;28;20433;-66
2022/10/24 02:27:02;;;;;;;245.18;22.10;;;;;;;12.43;71.94;99289.44;10403328;28;20326;-65
2022/10/24 02:32:08;;;;;;;272.05;21.02;;;;;;;12.39;71.74;99290.63;10402682;28;20052;-65
2022/10/24 02:37:11;;;;;;;177.05;11.85;;;;;;;12.25;71.40;99275.09;10397618;28;20419;-65
2022/10/24 02:42:18;;;;;;;211.13;19.25;;;;;;;12.08;71.62;99266.72;10394846;28;20103;-66
2022/10/24 02:47:23;;;;;;;244.15;17.10;;;;;;;12.01;71.96;99268.13;10396687;28;20045;-65
2022/10/24 02:52:25;;;;;;;628.45;27.60;;;;;;;11.99;71.98;99269.19;10397890;28;20563;-66
2022/10/24 02:57:27;;;;;;;712.08;22.55;;;;;;;12.01;71.86;99265.50;10395522;28;20103;-66
2022/10/24 03:02:29;;;;;;;321.90;12.05;;;;;;;11.94;71.74;99263.47;10394443;28;20057;-66
2022/10/24 03:07:31;;;;;;;449.92;15.93;;;;;;;11.90;71.92;99262.03;10390219;28;20080;-65
2022/10/24 03:12:33;;;;;;;470.95;25.95;;;;;;;11.88;71.95;99275.28;10387796;28;20045;-66
2022/10/24 03:17:35;;;;;;;479.45;22.40;;;;;;;11.86;71.94;99276.31;10390551;28;20099;-65
2022/10/24 03:22:36;;;;;;;369.48;16.92;;;;;;;11.90;71.76;99277.75;10386360;28;20188;-66
2022/10/24 03:27:38;;;;;;;365.55;17.02;;;;;;;11.85;71.86;99285.13;10389913;28;20049;-65
2022/10/24 03:32:40;;;;;;;357.17;14.45;;;;;;;11.82;71.92;99269.66;10387648;28;20440;-65
2022/10/24 03:37:42;;;;;;;376.23;15.02;;;;;;;11.85;71.94;99274.63;10386634;28;20069;-66
2022/10/24 03:42:44;;;;;;;679.72;29.25;;;;;;;11.65;72.07;99277.91;10387213;28;20129;-66
2022/10/24 03:47:46;;;;;;;410.92;16.85;;;;;;;11.57;72.42;99285.50;10386998;28;20486;-65
2022/10/24 03:52:48;;;;;;;256.70;10.20;;;;;;;11.57;71.86;99275.03;10386837;28;20041;-66
2022/10/24 03:57:50;;;;;;;371.65;19.25;;;;;;;11.66;71.85;99280.41;10387000;28;20496;-66
2022/10/24 04:02:53;;;;;;;331.48;10.60;;;;;;;11.63;71.65;99270.19;10388839;28;20217;-66
2022/10/24 04:07:55;;;;;;;457.10;17.98;;;;;;;11.59;71.78;99262.66;10387340;28;20060;-66
2022/10/24 04:12:56;;;;;;;396.95;14.35;;;;;;;11.52;71.76;99270.13;10387162;28;20139;-66
2022/10/24 04:17:58;;;;;;;293.60;14.00;;;;;;;11.50;71.89;99271.22;10387231;28;20556;-66
2022/10/24 04:23:00;;;;;;;305.75;12.52;;;;;;;11.48;71.59;99258.22;10387564;28;20045;-66
2022/10/24 04:28:05;;;;;;;214.20;6.97;;;;;;;11.43;71.45;99254.28;10380869;28;20057;-66
2022/10/24 04:33:07;;;;;;;314.02;16.02;;;;;;;11.19;71.90;99260.34;10383159;28;20041;-66
2022/10/24 04:38:09;;;;;;;101.93;7.65;;;;;;;11.04;72.44;99261.47;10385984;28;20057;-66
2022/10/24 04:43:11;;;;;;;275.65;14.25;;;;;;;11.13;71.93;99267.84;10382863;28;20410;-66
2022/10/24 04:48:13;;;;;;;441.02;19.63;;;;;;;11.23;71.75;99263.59;10386400;28;20049;-66
2022/10/24 04:53:15;;;;;;;456.63;18.17;;;;;;;11.19;71.58;99270.81;10384699;28;20062;-66
2022/10/24 04:58:17;;;;;;;312.85;12.10;;;;;;;11.05;71.75;99273.59;10383736;28;20597;-66
2022/10/24 05:03:22;;;;;;;255.43;12.30;;;;;;;11.06;71.80;99275.28;10384660;28;20442;-66
2022/10/24 05:08:23;;;;;;;42.22;6.22;;;;;;;11.02;71.83;99288.66;10384483;28;20444;-66
2022/10/24 05:13:25;;;;;;;75.00;7.03;;;;;;;10.96;71.78;99292.56;10383171;28;20092;-66
2022/10/24 05:18:27;;;;;;;167.95;6.68;;;;;;;10.93;71.94;99295.38;10383583;28;20111;-67
2022/10/24 05:23:29;;;;;;;361.20;12.25;;;;;;;10.87;72.01;99295.81;10386098;28;20046;-66
2022/10/24 05:28:32;;;;;;;260.38;9.75;;;;;;;10.87;72.11;99301.03;10382685;28;20528;-66
2022/10/24 05:33:34;;;;;;;542.38;15.80;;;;;;;10.87;71.84;99292.34;10383314;28;20516;-67
2022/10/24 05:38:35;;;;;;;560.08;19.85;;;;;;;10.80;71.56;99288.50;10382306;28;20054;-66
2022/10/24 05:43:37;;;;;;;39.45;6.78;;;;;;;10.74;71.70;99283.72;10382096;28;20038;-66
2022/10/24 05:48:39;;;;;;;5.22;3.03;;;;;;;10.67;71.94;99285.94;10384374;28;20049;-67
2022/10/24 05:53:41;;;;;;;7.55;4.43;;;;;;;10.67;71.74;99277.25;10382808;28;20350;-66
2022/10/24 05:58:43;;;;;;;7.38;3.53;;;;;;;10.60;72.25;99276.00;10384146;28;20044;-66
2022/10/24 06:03:45;;;;;;;93.43;6.35;;;;;;;10.62;72.29;99285.44;10383909;28;20056;-66
2022/10/24 06:08:47;;;;;;;226.15;9.60;;;;;;;10.62;72.38;99277.59;10383863;28;20319;-66
2022/10/24 06:13:49;;;;;;;8.10;4.20;;;;;;;10.68;72.20;99285.00;10392195;28;20053;-66
2022/10/24 06:18:51;;;;;;;19.20;5.40;;;;;;;10.81;71.95;99296.25;10389979;28;20405;-67
2022/10/24 06:23:53;;;;;;;7.00;2.95;;;;;;;10.89;72.09;99291.31;10388470;28;20056;-67
2022/10/24 06:28:55;;;;;;;9.63;4.47;;;;;;;10.93;71.87;99300.59;10389882;28;20409;-67
2022/10/24 06:33:57;;;;;;;14.68;5.25;;;;;;;10.95;71.23;99298.72;10387518;28;20045;-66
2022/10/24 06:38:58;;;;;;;11.80;5.10;;;;;;;10.98;71.38;99288.06;10391155;28;20060;-67
2022/10/24 06:44:01;;;;;;;17.30;5.30;;;;;;;11.13;71.73;99281.72;10388130;28;20048;-66
2022/10/24 06:49:06;;;;;;;22.42;7.18;;;;;;;11.27;72.30;99280.75;10388871;28;20046;-66
2022/10/24 06:54:08;;;;;;;14.25;5.82;;;;;;;11.42;71.90;99274.38;10390244;28;20421;-67
2022/10/24 06:59:14;;;;;;;15.07;4.72;;;;;;;11.59;71.53;99279.22;10385092;28;20049;-66
2022/10/24 07:04:16;;;;;;;18.08;5.22;;;;;;;11.67;71.28;99273.41;10386311;28;20148;-67
2022/10/24 07:09:18;;;;;;;23.20;6.82;;;;;;;11.57;71.33;99281.13;10389563;28;20045;-66
2022/10/24 07:14:20;;;;;;;16.38;6.50;;;;;;;11.69;71.45;99293.28;10385125;28;20445;-67
2022/10/24 07:19:21;;;;;;;22.13;6.28;;;;;;;11.90;71.11;99303.97;10388581;28;20057;-66
2022/10/24 07:24:23;;;;;;;22.88;7.80;;;;;;;12.04;71.04;99295.91;10387224;28;20090;-66
2022/10/24 07:29:25;;;;;;;31.10;11.00;;;;;;;12.18;70.78;99279.13;10388363;28;20418;-67
2022/10/24 07:34:27;;;;;;;22.20;7.15;;;;;;;12.31;70.39;99293.84;10384916;28;20068;-66
2022/10/24 07:39:29;;;;;;;12.73;5.47;;;;;;;12.40;69.85;99303.59;10386146;28;20064;-66
2022/10/24 07:44:31;;;;;;;28.38;7.20;;;;;;;12.44;69.63;99310.28;10383314;28;20064;-67
2022/10/24 07:49:33;;;;;;;16.52;6.60;;;;;;;12.48;69.72;99318.75;10388846;28;20453;-66
2022/10/24 07:54:35;;;;;;;18.08;6.18;;;;;;;12.64;69.48;99319.25;10388761;28;20069;-66
2022/10/24 07:59:38;;;;;;;17.35;6.10;;;;;;;12.73;69.48;99329.00;10386899;28;20061;-67
2022/10/24 08:04:43;;;;;;;23.13;6.35;;;;;;;12.81;69.32;99326.63;10382021;28;20051;-66
2022/10/24 08:09:46;;;;;;;20.08;7.55;;;;;;;12.96;69.80;99335.94;10368931;28;20050;-67
2022/10/24 08:14:48;;;;;;;19.38;6.75;;;;;;;13.20;69.88;99325.25;10388026;28;20049;-66
2022/10/24 08:19:50;;;;;;;20.00;6.82;;;;;;;13.34;69.62;99325.81;10385949;28;20421;-66
2022/10/24 08:24:52;;;;;;;22.67;7.43;;;;;;;13.54;69.15;99329.47;10377385;28;20063;-67
2022/10/24 08:29:54;;;;;;;22.25;5.50;;;;;;;13.93;69.45;99325.38;10379235;28;20099;-66
2022/10/24 08:34:57;;;;;;;21.27;5.43;;;;;;;14.08;69.51;99322.31;10374811;28;20635;-67
2022/10/24 08:39:59;;;;;;;14.35;5.00;;;;;;;14.63;68.85;99312.41;10382642;28;20056;-67
2022/10/24 08:45:01;;;;;;;15.35;3.80;;;;;;;14.89;68.83;99295.19;10379981;28;20053;-75
2022/10/24 08:50:26;;;;;;;18.00;5.53;;;;;;;15.23;68.44;99291.22;10382299;28;20119;-77
2022/10/24 08:55:49;;;;;;;19.02;4.30;;;;;;;15.30;67.87;99285.31;10379448;28;20046;-75
2022/10/24 09:00:54;;;;;;;22.55;3.90;;;;;;;15.43;67.70;99287.66;10383113;28;20296;-76
2022/10/24 09:06:01;;;;;;;17.63;5.80;;;;;;;15.49;67.23;99289.75;10371708;28;20521;-77
2022/10/24 09:11:05;;;;;;;16.90;4.97;;;;;;;15.68;67.37;99287.13;10383949;28;20057;-75
2022/10/24 09:16:13;;;;;;;18.30;4.18;;;;;;;15.74;67.06;99293.66;10379138;28;20049;-76
2022/10/24 09:21:15;;;;;;;13.13;3.45;;;;;;;15.88;66.58;99293.22;10377909;28;20049;-75
2022/10/24 09:26:26;;;;;;;9.30;2.80;;;;;;;16.01;65.33;99285.88;10379466;28;20059;-75
2022/10/24 09:31:28;;;;;;;15.25;3.67;;;;;;;16.05;65.08;99282.81;10380338;28;20520;-76
2022/10/24 09:36:30;;;;;;;12.23;3.50;;;;;;;16.30;65.24;99283.16;10376979;28;20045;-77
2022/10/24 09:41:33;;;;;;;11.98;3.50;;;;;;;16.60;64.70;99289.06;10374108;28;20045;-76
2022/10/24 09:46:35;;;;;;;17.25;3.30;;;;;;;16.70;64.28;99296.94;10377523;28;20112;-76
2022/10/24 09:51:57;;;;;;;15.13;3.17;;;;;;;16.74;62.11;99301.78;10383971;28;20517;-76
2022/10/24 09:57:25;;;;;;;11.63;2.67;;;;;;;16.63;62.46;99312.53;10379986;28;20072;-75
2022/10/24 10:02:33;;;;;;;15.68;3.33;;;;;;;16.72;62.74;99316.09;10337738;28;20176;-76
2022/10/24 10:07:40;;;;;;;11.32;3.20;;;;;;;16.84;62.30;99333.44;10344099;28;20140;-76
2022/10/24 10:12:53;;;;;;;12.75;2.90;;;;;;;16.86;61.88;99320.91;10342654;28;20050;-76
2022/10/24 10:17:58;;;;;;;13.65;2.78;;;;;;;17.01;59.81;99336.16;10347516;28;20524;-75
2022/10/24 10:23:24;;;;;;;11.98;2.70;;;;;;;17.25;59.51;99342.69;10347084;28;20327;-75
2022/10/24 10:28:26;;;;;;;11.70;2.85;;;;;;;17.84;59.11;99345.63;10347969;28;20057;-75
2022/10/24 10:33:44;;;;;;;10.80;2.38;;;;;;;17.93;57.14;99354.50;10347524;28;20403;-75
2022/10/24 10:38:56;;;;;;;12.80;2.78;;;;;;;17.89;56.38;99367.19;10340643;28;20709;-75
2022/10/24 10:44:19;;;;;;;11.20;2.50;;;;;;;17.93;56.30;99365.06;10339803;28;20046;-75
2022/10/24 10:49:29;;;;;;;13.38;2.75;;;;;;;18.07;56.06;99359.25;10347575;28;20061;-74
2022/10/24 10:54:47;;;;;;;11.35;2.30;;;;;;;18.03;54.36;99344.66;10346726;28;20054;-74
2022/10/24 11:00:34;;;;;;;12.55;2.30;;;;;;;17.76;54.54;99356.97;10347321;28;20101;-75
2022/10/24 11:05:43;;;;;;;10.02;2.20;;;;;;;17.64;55.49;99360.84;10348748;28;20065;-75
2022/10/24 11:10:53;;;;;;;5.80;1.80;;;;;;;17.63;55.05;99367.09;10350134;28;20408;-74
2022/10/24 11:16:01;;;;;;;8.70;1.70;;;;;;;17.68;54.75;99371.94;10349419;28;20042;-74
2022/10/24 11:21:15;;;;;;;7.63;2.22;;;;;;;17.72;54.52;99371.50;10348951;28;20057;-74
2022/10/24 11:26:33;;;;;;;6.00;1.75;;;;;;;17.92;53.33;99374.81;10348921;28;20055;-74
2022/10/24 11:31:43;;;;;;;11.45;1.92;;;;;;;18.15;52.34;99377.81;10347161;28;20108;-74
2022/10/24 11:36:54;;;;;;;;;;;;;;;18.03;52.27;99361.38;10349119;28;20057;-74
2022/10/24 11:42:24;;;;;;;5.40;1.70;;;;;;;18.50;48.96;99369.88;10347722;28;19921;-74
2022/10/24 11:47:26;;;;;;;7.25;1.73;;;;;;;18.82;50.58;99364.75;10347955;28;20049;-74
2022/10/24 11:52:34;;;;;;;9.15;1.85;;;;;;;18.99;49.18;99366.47;10348077;28;20061;-74
2022/10/24 11:57:37;;;;;;;8.85;1.70;;;;;;;19.04;48.19;99360.75;10347965;28;20049;-74
2022/10/24 12:03:17;;;;;;;10.70;2.00;;;;;;;19.04;46.35;99364.22;10344061;28;20084;-75
2022/10/24 12:08:38;;;;;;;7.70;1.57;;;;;;;18.87;46.27;99357.16;10343322;28;20058;-74
2022/10/24 12:13:48;;;;;;;8.27;1.67;;;;;;;18.97;47.07;99357.84;10346697;28;20504;-73
2022/10/24 12:18:57;;;;;;;7.90;1.67;;;;;;;18.84;46.26;99365.44;10343637;28;20407;-74
2022/10/24 12:24:00;;;;;;;6.13;1.88;;;;;;;18.64;47.15;99369.28;10343387;28;20458;-74
2022/10/24 12:29:19;;;;;;;8.43;1.80;;;;;;;18.61;46.00;99372.25;10343216;28;20242;-74
2022/10/24 12:34:22;;;;;;;7.03;1.50;;;;;;;18.39;47.37;99368.28;10346931;28;20054;-73
2022/10/24 12:39:33;;;;;;;13.18;2.00;;;;;;;18.11;46.95;99369.38;10346181;28;20097;-74
2022/10/24 12:44:37;;;;;;;5.70;1.48;;;;;;;18.07;47.71;99361.88;10345815;28;20064;-73
2022/10/24 12:49:40;;;;;;;6.22;1.63;;;;;;;17.83;47.75;99373.91;10345562;28;20049;-74
2022/10/24 12:54:44;;;;;;;6.75;1.70;;;;;;;17.66;47.87;99373.91;10345198;28;20058;-74
2022/10/24 12:59:47;;;;;;;11.02;1.80;;;;;;;17.54;47.81;99364.53;10345483;28;20085;-75
2022/10/24 13:05:22;;;;;;;8.02;1.90;;;;;;;17.61;47.73;99366.41;10345225;28;20409;-74
2022/10/24 13:10:52;;;;;;;5.97;1.45;;;;;;;17.42;47.66;99373.66;10346064;28;20442;-74
2022/10/24 13:16:14;;;;;;;8.88;1.90;;;;;;;17.43;48.38;99370.84;10344805;28;20132;-74
2022/10/24 13:21:19;;;;;;;6.93;1.92;;;;;;;17.67;48.42;99360.53;10342553;28;20054;-74
2022/10/24 13:26:57;;;;;;;9.75;2.35;;;;;;;17.72;47.31;99347.69;10342719;28;20054;-74
2022/10/24 13:32:04;;;;;;;6.10;1.63;;;;;;;18.09;46.63;99349.31;10352302;28;20053;-74
2022/10/24 13:37:23;;;;;;;6.80;1.77;;;;;;;18.37;46.29;99346.44;10343032;28;20053;-73
2022/10/24 13:42:49;;;;;;;10.93;2.05;;;;;;;18.51;45.82;99358.28;10341207;28;20046;-74
2022/10/24 13:47:58;;;;;;;8.10;2.05;;;;;;;18.56;46.83;99350.69;10341737;28;20462;-74
2022/10/24 13:53:23;;;;;;;10.80;1.80;;;;;;;18.52;46.34;99359.94;10340507;28;20061;-74
2022/10/24 13:58:38;;;;;;;11.15;2.17;;;;;;;18.55;46.71;99363.09;10336348;28;20156;-73
2022/10/24 14:03:47;;;;;;;12.13;2.00;;;;;;;18.56;46.44;99370.03;10339237;28;20092;-73
2022/10/24 14:08:51;;;;;;;9.02;1.67;;;;;;;18.46;46.59;99364.03;10342330;28;20060;-73
2022/10/24 14:14:12;;;;;;;8.13;2.00;;;;;;;18.49;46.58;99360.25;10340541;28;20046;-73
2022/10/24 14:19:14;;;;;;;6.63;1.88;;;;;;;18.37;47.34;99369.44;10343071;28;20042;-72
2022/10/24 14:24:21;;;;;;;10.60;2.10;;;;;;;18.14;47.09;99362.91;10342153;28;20422;-72
2022/10/24 14:29:33;;;;;;;7.05;1.83;;;;;;;18.19;47.20;99358.00;10339241;28;20054;-72
2022/10/24 14:34:37;;;;;;;8.48;2.03;;;;;;;18.07;47.09;99357.44;10348455;28;20115;-73
2022/10/24 14:39:39;;;;;;;8.50;1.95;;;;;;;18.04;47.95;99372.75;10347887;28;20549;-72
2022/10/24 14:44:45;;;;;;;8.35;2.00;;;;;;;18.03;47.72;99373.75;10348545;28;20427;-72
2022/10/24 14:49:47;;;;;;;7.80;2.00;;;;;;;18.12;47.66;99391.34;10346903;28;20042;-72
2022/10/24 14:55:20;;;;;;;18.45;6.20;;;;;;;18.14;47.80;99387.56;10349087;28;20103;-72
2022/10/24 15:00:25;;;;;;;9.00;2.10;;;;;;;17.99;48.03;99396.22;10347340;28;20057;-73
2022/10/24 15:05:30;;;;;;;11.73;4.03;;;;;;;17.90;48.21;99392.66;10344759;28;20042;-73
2022/10/24 15:10:37;;;;;;;10.15;2.30;;;;;;;17.88;47.91;99397.25;10346679;28;20054;-72
2022/10/24 15:15:42;;;;;;;9.02;2.42;;;;;;;17.82;47.74;99390.78;10347362;28;20050;-73
2022/10/24 15:20:46;;;;;;;9.60;1.95;;;;;;;17.71;47.96;99385.69;10347781;28;20171;-73
2022/10/24 15:26:01;;;;;;;10.38;2.22;;;;;;;17.61;47.18;99392.84;10345132;28;20144;-73
2022/10/24 15:31:09;;;;;;;15.90;2.63;;;;;;;17.57;47.95;99395.94;10347010;28;20058;-73
2022/10/24 15:36:26;;;;;;;7.57;1.70;;;;;;;17.32;48.26;99405.41;10344461;28;20482;-73
2022/10/24 15:41:32;;;;;;;9.20;1.90;;;;;;;17.30;48.47;99399.41;10346682;28;20065;-72
2022/10/24 15:46:34;;;;;;;6.72;1.85;;;;;;;17.26;48.73;99411.25;10343347;28;20089;-72
2022/10/24 15:51:37;;;;;;;8.88;2.80;;;;;;;17.24;49.11;99417.66;10345711;28;20228;-73
2022/10/24 15:56:39;;;;;;;9.27;2.80;;;;;;;17.17;49.13;99421.88;10346391;28;20149;-72
2022/10/24 16:01:51;;;;;;;12.32;3.60;;;;;;;17.16;49.33;99420.22;10345900;28;20054;-72
2022/10/24 16:06:54;;;;;;;10.95;3.00;;;;;;;17.07;49.01;99429.84;10346173;28;20140;-72
2022/10/24 16:11:57;;;;;;;11.50;3.33;;;;;;;17.14;49.54;99428.25;10346068;28;20585;-72
2022/10/24 16:17:00;;;;;;;7.90;2.70;;;;;;;17.11;49.39;99418.00;10344787;28;20054;-72
2022/10/24 16:22:03;;;;;;;11.52;2.38;;;;;;;17.02;49.49;99414.41;10345754;28;20325;-72
2022/10/24 16:27:06;;;;;;;10.27;2.60;;;;;;;16.97;49.99;99411.38;10346135;28;20050;-72
2022/10/24 16:32:10;;;;;;;9.23;1.90;;;;;;;16.92;49.77;99402.22;10343153;28;20052;-72
2022/10/24 16:37:13;;;;;;;9.68;2.08;;;;;;;16.80;50.28;99411.28;10343148;28;20042;-71
2022/10/24 16:42:17;;;;;;;10.45;2.15;;;;;;;16.60;51.08;99407.03;10344697;28;20053;-72
2022/10/24 16:47:19;;;;;;;8.07;1.80;;;;;;;16.20;52.22;99415.94;10347266;28;20073;-72
2022/10/24 16:52:22;;;;;;;8.20;3.22;;;;;;;16.20;51.87;99428.31;10347688;28;20046;-65
2022/10/24 16:57:24;;;;;;;10.80;2.40;;;;;;;16.09;51.93;99447.75;10342153;28;20054;-65
2022/10/24 17:02:27;;;;;;;7.32;2.05;;;;;;;15.97;52.33;99459.41;10344543;28;20069;-67
2022/10/24 17:07:29;;;;;;;9.57;2.30;;;;;;;15.92;52.45;99469.50;10345635;28;20046;-65
2022/10/24 17:12:31;;;;;;;8.07;2.90;;;;;;;15.98;52.98;99476.03;10345092;28;20556;-66
2022/10/24 17:17:33;;;;;;;12.30;4.45;;;;;;;16.02;52.52;99480.06;10343879;28;20056;-65
2022/10/24 17:22:36;;;;;;;12.98;2.90;;;;;;;16.10;52.63;99470.50;10343686;28;20728;-65
2022/10/24 17:27:38;;;;;;;13.18;3.30;;;;;;;16.02;52.75;99482.69;10344591;28;20046;-65
2022/10/24 17:32:40;;;;;;;11.90;3.85;;;;;;;15.93;53.46;99473.81;10344991;28;20066;-66
2022/10/24 17:38:04;;;;;;;14.82;3.28;;;;;;;15.94;53.97;99485.19;10344050;28;20053;-66
2022/10/24 17:43:19;;;;;;;13.70;3.75;;;;;;;15.91;53.50;99488.09;10346611;28;20057;-66
2022/10/24 17:48:22;;;;;;;14.48;2.20;;;;;;;15.97;53.34;99504.22;10341550;28;20050;-65
2022/10/24 17:53:25;;;;;;;10.82;2.30;;;;;;;15.99;53.44;99494.38;10344660;28;20050;-68
2022/10/24 17:58:27;;;;;;;12.68;2.45;;;;;;;15.84;53.76;99492.25;10342094;28;20229;-65
2022/10/24 18:03:30;;;;;;;8.82;2.20;;;;;;;15.69;53.95;99491.81;10342742;28;20204;-65
2022/10/24 18:08:32;;;;;;;11.57;2.30;;;;;;;15.65;54.38;99500.97;10348233;28;20050;-64
2022/10/24 18:13:36;;;;;;;10.20;2.10;;;;;;;15.64;54.82;99498.44;10351657;28;20170;-66
2022/10/24 18:18:39;;;;;;;12.25;2.30;;;;;;;15.61;55.16;99502.19;10351779;28;20104;-66
2022/10/24 18:23:41;;;;;;;9.85;2.13;;;;;;;15.53;55.56;99511.72;10351300;28;20465;-65
2022/10/24 18:28:45;;;;;;;9.40;2.15;;;;;;;15.53;55.45;99507.28;10351072;28;20042;-65
2022/10/24 18:33:48;;;;;;;15.05;3.00;;;;;;;15.49;55.48;99518.19;10351590;28;20046;-65
2022/10/24 18:38:53;;;;;;;11.70;2.80;;;;;;;15.37;56.10;99528.81;10350499;28;20050;-66
2022/10/24 18:43:58;;;;;;;9.38;3.08;;;;;;;15.25;56.44;99529.88;10350192;28;20372;-65
2022/10/24 18:49:00;;;;;;;12.65;2.60;;;;;;;15.18;56.49;99530.53;10350410;28;20426;-65
2022/10/24 18:54:05;;;;;;;13.70;2.47;;;;;;;15.03;56.67;99523.91;10348840;28;20124;-65
2022/10/24 18:59:19;;;;;;;12.15;2.85;;;;;;;14.90;56.82;99523.28;10344760;28;20482;-65
2022/10/24 19:04:25;;;;;;;12.90;2.45;;;;;;;14.88;57.34;99533.94;10347268;28;20112;-65
2022/10/24 19:09:27;;;;;;;9.57;2.10;;;;;;;14.81;57.57;99529.31;10345830;28;20054;-65
2022/10/24 19:14:29;;;;;;;11.80;2.50;;;;;;;14.78;58.18;99529.59;10347103;28;20057;-65
2022/10/24 19:19:35;;;;;;;9.18;2.50;;;;;;;14.85;58.17;99526.31;10348265;28;20135;-65
2022/10/24 19:24:37;;;;;;;13.82;2.25;;;;;;;14.81;58.02;99531.94;10347874;28;20055;-66
2022/10/24 19:29:39;;;;;;;10.80;2.10;;;;;;;14.88;58.24;99533.94;10348301;28;20100;-65
2022/10/24 19:34:40;;;;;;;12.43;2.60;;;;;;;14.88;58.27;99541.81;10347389;28;20089;-65
2022/10/24 19:39:42;;;;;;;8.52;2.22;;;;;;;14.90;58.16;99552.25;10348782;28;20045;-65
2022/10/24 19:44:46;;;;;;;10.43;2.10;;;;;;;14.93;58.25;99534.41;10343441;28;20080;-65
2022/10/24 19:49:53;;;;;;;11.30;2.30;;;;;;;14.92;58.81;99543.25;10346727;28;20125;-65
2022/10/24 19:54:55;;;;;;;12.57;2.35;;;;;;;14.86;58.77;99537.69;10346981;28;20058;-65
2022/10/24 19:59:57;;;;;;;10.18;2.13;;;;;;;14.81;58.87;99550.38;10346196;28;20085;-65
2022/10/24 20:04:59;;;;;;;12.05;2.40;;;;;;;14.80;59.01;99546.09;10346013;28;20056;-65
2022/10/24 20:10:00;;;;;;;12.70;2.30;;;;;;;14.69;59.13;99544.34;10346689;28;20226;-65
2022/10/24 20:15:02;;;;;;;15.45;3.03;;;;;;;14.69;59.52;99557.50;10346331;28;20096;-64
2022/10/24 20:20:05;;;;;;;13.70;2.60;;;;;;;14.65;59.81;99561.34;10345739;28;20053;-65
2022/10/24 20:25:07;;;;;;;14.82;2.50;;;;;;;14.55;59.58;99561.25;10345609;28;20418;-66
2022/10/24 20:30:09;;;;;;;11.73;2.13;;;;;;;14.47;59.94;99568.91;10345560;28;20097;-66
2022/10/24 20:35:11;;;;;;;11.88;2.47;;;;;;;14.35;60.35;99575.16;10345111;28;20314;-67
2022/10/24 20:40:13;;;;;;;12.05;2.50;;;;;;;14.39;60.61;99571.31;10345200;28;20050;-67
2022/10/24 20:45:16;;;;;;;12.95;2.47;;;;;;;14.29;60.67;99574.81;10345281;28;20061;-66
2022/10/24 20:50:23;;;;;;;12.20;2.33;;;;;;;14.17;61.27;99586.31;10345285;28;20481;-66
2022/10/24 20:55:25;;;;;;;8.45;2.42;;;;;;;14.05;61.59;99593.41;10343706;28;20097;-66
2022/10/24 21:00:44;;;;;;;12.32;1.98;;;;;;;13.97;61.85;99601.06;10344945;28;20050;-66
2022/10/24 21:05:46;;;;;;;14.80;2.30;;;;;;;13.93;62.40;99594.38;10344408;28;20054;-66
2022/10/24 21:10:48;;;;;;;12.55;2.50;;;;;;;13.86;62.44;99606.31;10343176;28;20045;-66
2022/10/24 21:15:56;;;;;;;11.95;2.22;;;;;;;13.79;62.70;99613.00;10344457;28;20486;-66
2022/10/24 21:20:57;;;;;;;11.48;2.58;;;;;;;13.68;62.75;99624.34;10341173;28;20050;-65
2022/10/24 21:26:04;;;;;;;12.25;3.20;;;;;;;13.67;63.10;99625.31;10344315;28;20081;-65
2022/10/24 21:31:12;;;;;;;13.23;2.30;;;;;;;13.59;63.02;99638.22;10343459;28;20046;-65
2022/10/24 21:36:17;;;;;;;15.50;2.40;;;;;;;13.54;63.32;99642.97;10343839;28;20506;-65
2022/10/24 21:41:20;;;;;;;17.40;4.95;;;;;;;13.47;63.43;99654.06;10343832;28;20054;-65
2022/10/24 21:46:25;;;;;;;20.67;7.25;;;;;;;13.44;63.58;99655.13;10352079;28;20510;-65
2022/10/24 21:51:29;;;;;;;10.98;3.00;;;;;;;13.45;63.76;99658.59;10342667;28;20046;-65
2022/10/24 21:56:35;;;;;;;9.52;2.22;;;;;;;13.50;63.46;99659.94;10348032;28;20402;-65
2022/10/24 22:01:38;;;;;;;8.43;2.17;;;;;;;13.47;63.87;99659.34;10340531;28;20508;-65
2022/10/24 22:06:40;;;;;;;11.25;2.67;;;;;;;13.47;63.36;99660.19;10349685;28;20046;-65
2022/10/24 22:11:43;;;;;;;12.52;2.55;;;;;;;13.49;63.57;99667.94;10348920;28;20453;-65
2022/10/24 22:16:46;;;;;;;14.40;2.83;;;;;;;13.45;63.58;99669.13;10348373;28;20108;-65
2022/10/24 22:21:49;;;;;;;14.70;2.80;;;;;;;13.44;63.59;99675.31;10348421;28;20197;-65
2022/10/24 22:26:51;;;;;;;9.18;2.42;;;;;;;13.48;63.24;99676.75;10349522;28;20057;-65
2022/10/24 22:31:54;;;;;;;8.93;2.90;;;;;;;13.44;63.50;99670.91;10348283;28;20461;-65
2022/10/24 22:37:11;;;;;;;9.77;2.53;;;;;;;13.42;63.28;99685.94;10347512;28;20101;-65
2022/10/24 22:42:14;;;;;;;13.27;3.20;;;;;;;13.44;63.29;99696.31;10348193;28;20141;-65
2022/10/24 22:47:35;;;;;;;9.05;2.70;;;;;;;13.44;63.11;99697.16;10348660;28;20054;-65
2022/10/24 22:52:37;;;;;;;9.98;2.65;;;;;;;13.40;63.17;99697.47;10346095;28;20042;-65
2022/10/24 22:57:40;;;;;;;10.57;2.30;;;;;;;13.40;63.37;99706.19;10347207;28;20140;-65
2022/10/24 23:02:44;;;;;;;13.00;2.40;;;;;;;13.40;63.09;99710.59;10347433;28;20124;-65
2022/10/24 23:07:50;;;;;;;7.78;1.90;;;;;;;13.39;63.37;99715.00;10346481;28;20045;-65
2022/10/24 23:12:52;;;;;;;9.23;2.40;;;;;;;13.39;63.35;99717.66;10345982;28;20407;-65
2022/10/24 23:17:54;;;;;;;7.57;2.00;;;;;;;13.43;63.05;99721.75;10347202;28;20116;-66
2022/10/24 23:22:58;;;;;;;11.00;2.15;;;;;;;13.50;63.01;99716.88;10346298;28;20097;-66
2022/10/24 23:28:25;;;;;;;10.68;1.95;;;;;;;13.51;63.17;99727.28;10346869;28;20049;-66